sensor_id;sensor_type;location;lat;lon;timestamp;temperature;humidity
14097;DHT22;7125;48.106;11.544;2023-04-25T02:34:09;6.20;99.90
14097;DHT22;7125;48.106;11.544;2023-04-25T02:36:38;6.30;99.90
14097;DHT22;7125;48.106;11.544;2023-04-25T02:39:05;6.40;99.90
14097;DHT22;7125;48.106;11.544;2023-04-25T02:41:32;6.40;99.90
14097;DHT22;7125;48.106;11.544;2023-04-25T02:43:59;6.50;99.90
14097;DHT22;7125;48.106;11.544;2023-04-25T02:46:26;6.60;99.90
14097;DHT22;7125;48.106;11.544;2023-04-25T02:48:53;6.70;99.90
14097;DHT22;7125;48.106;11.544;2023-04-25T02:51:21;6.80;99.90
14097;DHT22;7125;48.106;11.544;2023-04-25T02:53:49;6.80;99.90
14097;DHT22;7125;48.106;11.544;2023-04-25T02:56:16;6.80;99.90
14097;DHT22;7125;48.106;11.544;2023-04-25T02:58:43;6.90;99.90
14097;DHT22;7125;48.106;11.544;2023-04-25T03:01:11;6.90;99.90
14097;DHT22;7125;48.106;11.544;2023-04-25T03:03:38;6.90;99.90
14097;DHT22;7125;48.106;11.544;2023-04-25T03:06:05;7.00;99.90
14097;DHT22;7125;48.106;11.544;2023-04-25T03:08:34;7.00;99.90
14097;DHT22;7125;48.106;11.544;2023-04-25T03:11:01;7.10;99.90
14097;DHT22;7125;48.106;11.544;2023-04-25T03:13:29;7.20;99.90
14097;DHT22;7125;48.106;11.544;2023-04-25T03:15:57;7.20;99.90
14097;DHT22;7125;48.106;11.544;2023-04-25T03:18:24;7.20;99.90
14097;DHT22;7125;48.106;11.544;2023-04-25T03:20:51;7.20;99.90
14097;DHT22;7125;48.106;11.544;2023-04-25T03:23:18;7.10;99.90
14097;DHT22;7125;48.106;11.544;2023-04-25T03:25:47;6.90;99.90
14097;DHT22;7125;48.106;11.544;2023-04-25T03:28:14;6.80;99.90
14097;DHT22;7125;48.106;11.544;2023-04-25T03:30:41;6.80;99.90
14097;DHT22;7125;48.106;11.544;2023-04-25T03:33:09;6.70;99.90
14097;DHT22;7125;48.106;11.544;2023-04-25T03:35:36;6.70;99.90
14097;DHT22;7125;48.106;11.544;2023-04-25T03:38:03;6.70;99.90
14097;DHT22;7125;48.106;11.544;2023-04-25T03:40:35;6.70;99.90
14097;DHT22;7125;48.106;11.544;2023-04-25T03:43:19;6.70;99.90
14097;DHT22;7125;48.106;11.544;2023-04-25T03:45:52;6.60;99.90
14097;DHT22;7125;48.106;11.544;2023-04-25T03:48:21;6.60;99.90
14097;DHT22;7125;48.106;11.544;2023-04-25T03:50:51;6.60;99.90
14097;DHT22;7125;48.106;11.544;2023-04-25T03:53:18;6.60;99.90
14097;DHT22;7125;48.106;11.544;2023-04-25T03:56:18;6.50;99.90
14097;DHT22;7125;48.106;11.544;2023-04-25T03:58:48;6.50;99.90
14097;DHT22;7125;48.106;11.544;2023-04-25T04:01:18;6.50;99.90
14097;DHT22;7125;48.106;11.544;2023-04-25T04:03:45;6.50;99.90
14097;DHT22;7125;48.106;11.544;2023-04-25T04:06:12;6.40;99.90
14097;DHT22;7125;48.106;11.544;2023-04-25T04:08:42;6.40;99.90
14097;DHT22;7125;48.106;11.544;2023-04-25T04:11:10;6.40;99.90
14097;DHT22;7125;48.106;11.544;2023-04-25T04:13:37;6.40;99.90
14097;DHT22;7125;48.106;11.544;2023-04-25T04:16:07;6.40;99.90
14097;DHT22;7125;48.106;11.544;2023-04-25T04:18:34;6.30;99.90
14097;DHT22;7125;48.106;11.544;2023-04-25T04:21:02;6.30;99.90
14097;DHT22;7125;48.106;11.544;2023-04-25T04:23:32;6.30;99.90
14097;DHT22;7125;48.106;11.544;2023-04-25T05:25:22;6.80;99.90
14097;DHT22;7125;48.106;11.544;2023-04-25T05:28:12;6.80;99.90
14097;DHT22;7125;48.106;11.544;2023-04-25T05:31:02;6.80;99.90
14097;DHT22;7125;48.106;11.544;2023-04-25T05:33:44;6.80;99.90
14097;DHT22;7125;48.106;11.544;2023-04-25T05:36:13;6.80;99.90
14097;DHT22;7125;48.106;11.544;2023-04-25T05:39:02;6.80;99.90
14097;DHT22;7125;48.106;11.544;2023-04-25T05:41:55;6.80;99.90
14097;DHT22;7125;48.106;11.544;2023-04-25T05:52:55;6.90;99.90
14097;DHT22;7125;48.106;11.544;2023-04-25T05:58:14;7.10;99.90
14097;DHT22;7125;48.106;11.544;2023-04-25T06:03:18;7.00;99.90
14097;DHT22;7125;48.106;11.544;2023-04-25T06:05:45;6.90;99.90
14097;DHT22;7125;48.106;11.544;2023-04-25T06:08:12;6.80;99.90
14097;DHT22;7125;48.106;11.544;2023-04-25T06:10:39;6.60;99.90
14097;DHT22;7125;48.106;11.544;2023-04-25T06:13:06;6.50;99.90
14097;DHT22;7125;48.106;11.544;2023-04-25T06:15:45;6.30;99.90
14097;DHT22;7125;48.106;11.544;2023-04-25T06:18:12;6.10;99.90
14097;DHT22;7125;48.106;11.544;2023-04-25T06:20:39;6.00;99.90
14097;DHT22;7125;48.106;11.544;2023-04-25T06:23:06;5.90;99.90
14097;DHT22;7125;48.106;11.544;2023-04-25T06:25:44;5.80;99.90
14097;DHT22;7125;48.106;11.544;2023-04-25T06:28:12;5.70;99.90
14097;DHT22;7125;48.106;11.544;2023-04-25T06:30:40;5.70;99.90
14097;DHT22;7125;48.106;11.544;2023-04-25T06:33:12;5.70;99.90
14097;DHT22;7125;48.106;11.544;2023-04-25T06:35:41;5.70;99.90
14097;DHT22;7125;48.106;11.544;2023-04-25T06:38:11;5.70;99.90
14097;DHT22;7125;48.106;11.544;2023-04-25T06:40:39;5.90;99.90
14097;DHT22;7125;48.106;11.544;2023-04-25T06:43:08;6.00;99.90
14097;DHT22;7125;48.106;11.544;2023-04-25T06:46:03;6.00;99.90
14097;DHT22;7125;48.106;11.544;2023-04-25T06:48:34;6.20;99.90
14097;DHT22;7125;48.106;11.544;2023-04-25T06:51:03;6.30;99.90
14097;DHT22;7125;48.106;11.544;2023-04-25T06:53:30;6.30;99.90
14097;DHT22;7125;48.106;11.544;2023-04-25T06:56:01;6.40;99.90
14097;DHT22;7125;48.106;11.544;2023-04-25T06:58:40;6.70;99.90
14097;DHT22;7125;48.106;11.544;2023-04-25T07:01:12;6.90;99.90
14097;DHT22;7125;48.106;11.544;2023-04-25T07:03:41;6.90;99.90
14097;DHT22;7125;48.106;11.544;2023-04-25T07:06:14;7.00;99.90
14097;DHT22;7125;48.106;11.544;2023-04-25T07:08:43;7.00;99.90
14097;DHT22;7125;48.106;11.544;2023-04-25T07:11:13;7.00;99.90
14097;DHT22;7125;48.106;11.544;2023-04-25T07:13:42;7.00;99.90
14097;DHT22;7125;48.106;11.544;2023-04-25T07:16:09;7.00;99.90
14097;DHT22;7125;48.106;11.544;2023-04-25T07:18:37;7.00;99.90
14097;DHT22;7125;48.106;11.544;2023-04-25T07:21:06;7.00;99.90
14097;DHT22;7125;48.106;11.544;2023-04-25T07:23:35;7.00;99.90
14097;DHT22;7125;48.106;11.544;2023-04-25T07:26:09;7.10;99.90
14097;DHT22;7125;48.106;11.544;2023-04-25T07:28:47;7.10;99.90
14097;DHT22;7125;48.106;11.544;2023-04-25T07:31:17;7.20;99.90
14097;DHT22;7125;48.106;11.544;2023-04-25T07:33:50;7.40;99.90
14097;DHT22;7125;48.106;11.544;2023-04-25T07:36:21;7.50;99.90
14097;DHT22;7125;48.106;11.544;2023-04-25T07:38:52;7.50;99.90
14097;DHT22;7125;48.106;11.544;2023-04-25T07:41:20;7.60;99.90
14097;DHT22;7125;48.106;11.544;2023-04-25T07:43:49;7.70;99.90
14097;DHT22;7125;48.106;11.544;2023-04-25T07:46:17;7.80;99.90
14097;DHT22;7125;48.106;11.544;2023-04-25T07:48:45;7.80;99.90
14097;DHT22;7125;48.106;11.544;2023-04-25T07:51:13;8.00;99.90
14097;DHT22;7125;48.106;11.544;2023-04-25T07:53:43;8.10;99.90
14097;DHT22;7125;48.106;11.544;2023-04-25T07:56:14;8.20;99.90
14097;DHT22;7125;48.106;11.544;2023-04-25T07:58:46;8.20;99.90
14097;DHT22;7125;48.106;11.544;2023-04-25T08:06:44;8.50;99.90
14097;DHT22;7125;48.106;11.544;2023-04-25T08:09:20;8.70;99.90
14097;DHT22;7125;48.106;11.544;2023-04-25T08:11:50;9.00;99.90
14097;DHT22;7125;48.106;11.544;2023-04-25T08:14:36;9.10;99.90
14097;DHT22;7125;48.106;11.544;2023-04-25T08:17:06;9.20;99.90
14097;DHT22;7125;48.106;11.544;2023-04-25T08:22:29;9.70;99.90
14097;DHT22;7125;48.106;11.544;2023-04-25T08:25:29;9.90;99.90
14097;DHT22;7125;48.106;11.544;2023-04-25T08:33:14;9.80;99.90
14097;DHT22;7125;48.106;11.544;2023-04-25T08:36:02;9.70;99.90
14097;DHT22;7125;48.106;11.544;2023-04-25T08:38:31;9.60;99.90
14097;DHT22;7125;48.106;11.544;2023-04-25T08:41:01;9.50;99.90
14097;DHT22;7125;48.106;11.544;2023-04-25T08:43:32;9.40;99.90
14097;DHT22;7125;48.106;11.544;2023-04-25T08:46:01;9.40;99.90
14097;DHT22;7125;48.106;11.544;2023-04-25T08:48:53;9.50;99.90
14097;DHT22;7125;48.106;11.544;2023-04-25T08:51:22;9.60;99.90
14097;DHT22;7125;48.106;11.544;2023-04-25T08:53:52;9.70;99.90
14097;DHT22;7125;48.106;11.544;2023-04-25T08:56:21;9.80;99.90
14097;DHT22;7125;48.106;11.544;2023-04-25T08:58:49;9.80;99.90
14097;DHT22;7125;48.106;11.544;2023-04-25T09:01:17;9.90;99.90
14097;DHT22;7125;48.106;11.544;2023-04-25T09:06:47;10.10;99.90
14097;DHT22;7125;48.106;11.544;2023-04-25T09:09:14;10.20;99.90
14097;DHT22;7125;48.106;11.544;2023-04-25T09:11:42;10.50;99.90
14097;DHT22;7125;48.106;11.544;2023-04-25T09:14:14;10.70;99.90
14097;DHT22;7125;48.106;11.544;2023-04-25T09:17:01;10.80;99.90
14097;DHT22;7125;48.106;11.544;2023-04-25T09:19:41;10.70;99.90
14097;DHT22;7125;48.106;11.544;2023-04-25T09:22:21;10.80;99.90
14097;DHT22;7125;48.106;11.544;2023-04-25T09:24:48;10.80;99.90
14097;DHT22;7125;48.106;11.544;2023-04-25T09:27:20;10.90;99.90
14097;DHT22;7125;48.106;11.544;2023-04-25T09:29:57;11.10;99.90
14097;DHT22;7125;48.106;11.544;2023-04-25T09:32:25;11.50;99.90
14097;DHT22;7125;48.106;11.544;2023-04-25T09:34:56;11.80;99.90
14097;DHT22;7125;48.106;11.544;2023-04-25T09:37:27;12.00;99.90
14097;DHT22;7125;48.106;11.544;2023-04-25T09:40:12;11.90;99.90
14097;DHT22;7125;48.106;11.544;2023-04-25T09:42:57;11.70;99.90
14097;DHT22;7125;48.106;11.544;2023-04-25T09:45:25;11.70;99.90
14097;DHT22;7125;48.106;11.544;2023-04-25T09:47:56;11.70;99.90
14097;DHT22;7125;48.106;11.544;2023-04-25T09:50:26;11.70;99.90
14097;DHT22;7125;48.106;11.544;2023-04-25T09:53:03;11.70;99.90
14097;DHT22;7125;48.106;11.544;2023-04-25T09:55:44;11.70;99.60
14097;DHT22;7125;48.106;11.544;2023-04-25T09:58:14;11.60;99.90
14097;DHT22;7125;48.106;11.544;2023-04-25T10:00:41;11.60;99.90
14097;DHT22;7125;48.106;11.544;2023-04-25T10:03:24;11.60;99.90
14097;DHT22;7125;48.106;11.544;2023-04-25T10:06:09;11.50;99.90
14097;DHT22;7125;48.106;11.544;2023-04-25T10:08:41;11.50;99.90
14097;DHT22;7125;48.106;11.544;2023-04-25T10:11:11;11.50;99.90
14097;DHT22;7125;48.106;11.544;2023-04-25T10:13:44;11.50;99.60
14097;DHT22;7125;48.106;11.544;2023-04-25T10:16:13;11.50;99.60
14097;DHT22;7125;48.106;11.544;2023-04-25T10:18:41;11.60;99.90
14097;DHT22;7125;48.106;11.544;2023-04-25T10:21:10;11.80;99.70
14097;DHT22;7125;48.106;11.544;2023-04-25T10:23:37;12.20;99.90
14097;DHT22;7125;48.106;11.544;2023-04-25T10:26:06;12.70;98.70
14097;DHT22;7125;48.106;11.544;2023-04-25T10:28:59;13.00;98.10
14097;DHT22;7125;48.106;11.544;2023-04-25T10:34:08;13.30;95.10
14097;DHT22;7125;48.106;11.544;2023-04-25T10:36:36;13.10;95.20
14097;DHT22;7125;48.106;11.544;2023-04-25T10:39:05;12.80;95.80
14097;DHT22;7125;48.106;11.544;2023-04-25T10:41:53;12.30;95.50
14097;DHT22;7125;48.106;11.544;2023-04-25T10:44:26;11.60;95.30
14097;DHT22;7125;48.106;11.544;2023-04-25T10:46:55;11.10;96.10
14097;DHT22;7125;48.106;11.544;2023-04-25T10:49:30;10.80;97.30
14097;DHT22;7125;48.106;11.544;2023-04-25T10:54:58;10.30;99.90
14097;DHT22;7125;48.106;11.544;2023-04-25T10:57:28;10.10;99.90
14097;DHT22;7125;48.106;11.544;2023-04-25T11:00:14;9.90;99.90
14097;DHT22;7125;48.106;11.544;2023-04-25T11:02:52;9.80;99.90
14097;DHT22;7125;48.106;11.544;2023-04-25T11:05:31;9.60;99.90
14097;DHT22;7125;48.106;11.544;2023-04-25T11:08:00;9.60;99.90
14097;DHT22;7125;48.106;11.544;2023-04-25T11:10:31;9.80;99.90
14097;DHT22;7125;48.106;11.544;2023-04-25T11:13:06;10.00;99.90
14097;DHT22;7125;48.106;11.544;2023-04-25T11:15:41;10.30;99.90
14097;DHT22;7125;48.106;11.544;2023-04-25T11:18:09;10.50;99.90
14097;DHT22;7125;48.106;11.544;2023-04-25T11:20:39;10.70;99.90
14097;DHT22;7125;48.106;11.544;2023-04-25T11:23:11;10.80;99.90
14097;DHT22;7125;48.106;11.544;2023-04-25T11:25:39;10.80;99.90
14097;DHT22;7125;48.106;11.544;2023-04-25T11:28:06;10.80;99.90
14097;DHT22;7125;48.106;11.544;2023-04-25T11:30:35;10.70;99.90
14097;DHT22;7125;48.106;11.544;2023-04-25T11:33:04;10.50;99.90
14097;DHT22;7125;48.106;11.544;2023-04-25T11:35:33;10.30;99.90
14097;DHT22;7125;48.106;11.544;2023-04-25T11:38:02;10.30;99.90
14097;DHT22;7125;48.106;11.544;2023-04-25T11:40:31;10.30;99.90
14097;DHT22;7125;48.106;11.544;2023-04-25T11:43:00;10.30;99.90
14097;DHT22;7125;48.106;11.544;2023-04-25T11:45:28;10.30;99.90
14097;DHT22;7125;48.106;11.544;2023-04-25T11:48:01;10.10;99.90
14097;DHT22;7125;48.106;11.544;2023-04-25T11:50:29;9.90;99.90
14097;DHT22;7125;48.106;11.544;2023-04-25T11:53:00;9.70;99.90
14097;DHT22;7125;48.106;11.544;2023-04-25T11:55:30;9.60;99.90
14097;DHT22;7125;48.106;11.544;2023-04-25T11:57:59;9.50;99.90
14097;DHT22;7125;48.106;11.544;2023-04-25T12:00:27;9.40;99.90
14097;DHT22;7125;48.106;11.544;2023-04-25T12:02:56;9.20;99.90
14097;DHT22;7125;48.106;11.544;2023-04-25T12:05:30;9.10;99.90
14097;DHT22;7125;48.106;11.544;2023-04-25T12:08:09;9.10;99.90
14097;DHT22;7125;48.106;11.544;2023-04-25T12:10:41;9.00;99.90
14097;DHT22;7125;48.106;11.544;2023-04-25T12:13:21;9.00;99.90
14097;DHT22;7125;48.106;11.544;2023-04-25T12:15:50;8.90;99.90
14097;DHT22;7125;48.106;11.544;2023-04-25T12:18:19;8.70;99.90
14097;DHT22;7125;48.106;11.544;2023-04-25T12:20:54;8.60;99.90
14097;DHT22;7125;48.106;11.544;2023-04-25T12:23:28;8.40;99.90
14097;DHT22;7125;48.106;11.544;2023-04-25T12:26:03;8.30;99.90
14097;DHT22;7125;48.106;11.544;2023-04-25T12:28:32;8.20;99.90
14097;DHT22;7125;48.106;11.544;2023-04-25T12:31:01;8.20;99.90
14097;DHT22;7125;48.106;11.544;2023-04-25T12:33:31;8.20;99.90
14097;DHT22;7125;48.106;11.544;2023-04-25T12:36:01;8.20;99.90
14097;DHT22;7125;48.106;11.544;2023-04-25T12:38:37;8.30;99.90
14097;DHT22;7125;48.106;11.544;2023-04-25T12:41:07;8.30;99.90
14097;DHT22;7125;48.106;11.544;2023-04-25T12:43:47;8.40;99.90
14097;DHT22;7125;48.106;11.544;2023-04-25T12:46:16;8.50;99.90
14097;DHT22;7125;48.106;11.544;2023-04-25T12:48:44;8.50;99.90
14097;DHT22;7125;48.106;11.544;2023-04-25T12:51:15;8.60;99.90
14097;DHT22;7125;48.106;11.544;2023-04-25T12:53:43;8.60;99.90
14097;DHT22;7125;48.106;11.544;2023-04-25T12:56:10;8.50;99.90
14097;DHT22;7125;48.106;11.544;2023-04-25T12:58:37;8.50;99.90
14097;DHT22;7125;48.106;11.544;2023-04-25T13:01:06;8.50;99.90
14097;DHT22;7125;48.106;11.544;2023-04-25T13:03:34;8.50;99.90
14097;DHT22;7125;48.106;11.544;2023-04-25T13:06:05;8.50;99.90
14097;DHT22;7125;48.106;11.544;2023-04-25T13:08:35;8.40;99.90
14097;DHT22;7125;48.106;11.544;2023-04-25T13:11:03;8.30;99.90
14097;DHT22;7125;48.106;11.544;2023-04-25T13:13:30;8.40;99.90
14097;DHT22;7125;48.106;11.544;2023-04-25T13:16:00;8.30;99.90
14097;DHT22;7125;48.106;11.544;2023-04-25T13:18:28;8.30;99.90
14097;DHT22;7125;48.106;11.544;2023-04-25T13:20:56;8.20;99.90
14097;DHT22;7125;48.106;11.544;2023-04-25T13:23:29;8.20;99.90
14097;DHT22;7125;48.106;11.544;2023-04-25T13:25:59;8.20;99.90
14097;DHT22;7125;48.106;11.544;2023-04-25T13:28:27;8.20;99.90
14097;DHT22;7125;48.106;11.544;2023-04-25T13:31:00;8.10;99.90
14097;DHT22;7125;48.106;11.544;2023-04-25T13:33:28;8.00;99.90
14097;DHT22;7125;48.106;11.544;2023-04-25T13:35:57;8.10;99.90
14097;DHT22;7125;48.106;11.544;2023-04-25T13:38:25;8.20;99.90
14097;DHT22;7125;48.106;11.544;2023-04-25T13:40:56;8.30;99.90
14097;DHT22;7125;48.106;11.544;2023-04-25T13:43:28;8.30;99.90
14097;DHT22;7125;48.106;11.544;2023-04-25T13:46:09;8.20;99.90
14097;DHT22;7125;48.106;11.544;2023-04-25T13:48:38;8.00;99.90
14097;DHT22;7125;48.106;11.544;2023-04-25T13:51:07;7.80;99.90
14097;DHT22;7125;48.106;11.544;2023-04-25T13:53:34;7.70;99.90
14097;DHT22;7125;48.106;11.544;2023-04-25T13:56:03;7.70;99.90
14097;DHT22;7125;48.106;11.544;2023-04-25T13:58:32;7.70;99.90
14097;DHT22;7125;48.106;11.544;2023-04-25T14:01:02;7.60;99.90
14097;DHT22;7125;48.106;11.544;2023-04-25T14:03:30;7.50;99.90
14097;DHT22;7125;48.106;11.544;2023-04-25T14:06:03;7.50;99.90
14097;DHT22;7125;48.106;11.544;2023-04-25T14:08:32;7.50;99.90
14097;DHT22;7125;48.106;11.544;2023-04-25T14:10:59;7.40;99.90
14097;DHT22;7125;48.106;11.544;2023-04-25T14:13:28;7.40;99.90
14097;DHT22;7125;48.106;11.544;2023-04-25T14:15:59;7.40;99.90
14097;DHT22;7125;48.106;11.544;2023-04-25T14:18:27;7.40;99.90
14097;DHT22;7125;48.106;11.544;2023-04-25T14:20:54;7.30;99.90
14097;DHT22;7125;48.106;11.544;2023-04-25T14:23:21;7.20;99.90
14097;DHT22;7125;48.106;11.544;2023-04-25T14:25:50;7.20;99.90
14097;DHT22;7125;48.106;11.544;2023-04-25T14:28:17;7.30;99.90
14097;DHT22;7125;48.106;11.544;2023-04-25T14:30:44;7.40;99.90
14097;DHT22;7125;48.106;11.544;2023-04-25T14:33:14;7.50;99.90
14097;DHT22;7125;48.106;11.544;2023-04-25T14:35:41;7.80;99.90
14097;DHT22;7125;48.106;11.544;2023-04-25T14:38:08;7.90;99.90
14097;DHT22;7125;48.106;11.544;2023-04-25T14:40:35;8.10;99.90
14097;DHT22;7125;48.106;11.544;2023-04-25T14:43:04;8.10;99.90
14097;DHT22;7125;48.106;11.544;2023-04-25T14:45:31;8.10;99.90
14097;DHT22;7125;48.106;11.544;2023-04-25T14:47:58;8.20;99.90
14097;DHT22;7125;48.106;11.544;2023-04-25T14:50:29;8.20;99.90
14097;DHT22;7125;48.106;11.544;2023-04-25T14:53:10;8.40;99.90
14097;DHT22;7125;48.106;11.544;2023-04-25T14:55:38;8.50;99.90
14097;DHT22;7125;48.106;11.544;2023-04-25T14:58:06;8.40;99.90
14097;DHT22;7125;48.106;11.544;2023-04-25T15:00:33;8.40;99.90
14097;DHT22;7125;48.106;11.544;2023-04-25T15:03:01;8.40;99.90
14097;DHT22;7125;48.106;11.544;2023-04-25T15:05:30;8.30;99.90
14097;DHT22;7125;48.106;11.544;2023-04-25T15:07:57;8.30;99.90
14097;DHT22;7125;48.106;11.544;2023-04-25T15:10:24;8.20;99.90
14097;DHT22;7125;48.106;11.544;2023-04-25T15:12:51;8.20;99.90
14097;DHT22;7125;48.106;11.544;2023-04-25T15:15:20;8.20;99.90
14097;DHT22;7125;48.106;11.544;2023-04-25T15:17:48;8.20;99.90
14097;DHT22;7125;48.106;11.544;2023-04-25T15:20:16;8.10;99.90
14097;DHT22;7125;48.106;11.544;2023-04-25T15:22:45;8.10;99.90
14097;DHT22;7125;48.106;11.544;2023-04-25T15:25:15;8.10;99.90
14097;DHT22;7125;48.106;11.544;2023-04-25T15:27:48;8.10;99.90
14097;DHT22;7125;48.106;11.544;2023-04-25T15:30:18;8.10;99.90
14097;DHT22;7125;48.106;11.544;2023-04-25T15:32:46;8.10;99.90
14097;DHT22;7125;48.106;11.544;2023-04-25T15:35:14;8.20;99.90
14097;DHT22;7125;48.106;11.544;2023-04-25T15:37:45;8.20;99.90
14097;DHT22;7125;48.106;11.544;2023-04-25T15:40:15;8.20;99.90
14097;DHT22;7125;48.106;11.544;2023-04-25T15:42:43;8.30;99.90
14097;DHT22;7125;48.106;11.544;2023-04-25T15:45:13;8.30;99.90
14097;DHT22;7125;48.106;11.544;2023-04-25T15:47:42;8.40;99.90
14097;DHT22;7125;48.106;11.544;2023-04-25T15:50:15;8.50;99.90
14097;DHT22;7125;48.106;11.544;2023-04-25T15:52:49;8.50;99.90
14097;DHT22;7125;48.106;11.544;2023-04-25T16:54:43;7.40;99.90
14097;DHT22;7125;48.106;11.544;2023-04-25T16:57:10;7.40;99.90
14097;DHT22;7125;48.106;11.544;2023-04-25T16:59:38;7.40;99.90
14097;DHT22;7125;48.106;11.544;2023-04-25T17:02:10;7.30;99.90
14097;DHT22;7125;48.106;11.544;2023-04-25T17:04:37;7.20;99.90
14097;DHT22;7125;48.106;11.544;2023-04-25T17:09:46;7.10;99.90
14097;DHT22;7125;48.106;11.544;2023-04-25T17:12:13;7.10;99.90
14097;DHT22;7125;48.106;11.544;2023-04-25T17:14:41;7.10;99.90
14097;DHT22;7125;48.106;11.544;2023-04-25T17:17:08;7.10;99.90
14097;DHT22;7125;48.106;11.544;2023-04-25T17:19:36;7.00;99.90
14097;DHT22;7125;48.106;11.544;2023-04-25T17:22:06;7.10;99.90
14097;DHT22;7125;48.106;11.544;2023-04-25T17:24:33;7.00;99.90
14097;DHT22;7125;48.106;11.544;2023-04-25T17:27:03;7.00;99.90
14097;DHT22;7125;48.106;11.544;2023-04-25T17:29:30;7.00;99.90
14097;DHT22;7125;48.106;11.544;2023-04-25T17:32:00;6.90;99.90
14097;DHT22;7125;48.106;11.544;2023-04-25T17:34:28;7.00;99.90
14097;DHT22;7125;48.106;11.544;2023-04-25T17:36:56;7.00;99.90
14097;DHT22;7125;48.106;11.544;2023-04-25T17:42:08;7.00;99.90
14097;DHT22;7125;48.106;11.544;2023-04-25T17:44:37;7.00;99.90
14097;DHT22;7125;48.106;11.544;2023-04-25T17:47:05;7.00;99.90
14097;DHT22;7125;48.106;11.544;2023-04-25T17:49:34;7.00;99.90
14097;DHT22;7125;48.106;11.544;2023-04-25T17:52:03;6.90;99.90
14097;DHT22;7125;48.106;11.544;2023-04-25T17:54:31;6.90;99.90
14097;DHT22;7125;48.106;11.544;2023-04-25T17:56:59;6.90;99.90
14097;DHT22;7125;48.106;11.544;2023-04-25T17:59:28;6.90;99.90
14097;DHT22;7125;48.106;11.544;2023-04-25T18:01:56;6.90;99.90
14097;DHT22;7125;48.106;11.544;2023-04-25T18:04:25;6.90;99.90
14097;DHT22;7125;48.106;11.544;2023-04-25T18:06:52;6.90;99.90
14097;DHT22;7125;48.106;11.544;2023-04-25T18:09:21;6.90;99.90
14097;DHT22;7125;48.106;11.544;2023-04-25T18:11:50;6.90;99.90
14097;DHT22;7125;48.106;11.544;2023-04-25T18:14:20;6.90;99.90
14097;DHT22;7125;48.106;11.544;2023-04-25T18:16:51;6.90;99.90
14097;DHT22;7125;48.106;11.544;2023-04-25T18:19:18;6.90;99.90
14097;DHT22;7125;48.106;11.544;2023-04-25T18:21:47;6.90;99.90
14097;DHT22;7125;48.106;11.544;2023-04-25T18:24:16;6.90;99.90
14097;DHT22;7125;48.106;11.544;2023-04-25T18:26:47;6.90;99.90
14097;DHT22;7125;48.106;11.544;2023-04-25T18:29:16;6.80;99.90
14097;DHT22;7125;48.106;11.544;2023-04-25T18:31:44;6.70;99.90
14097;DHT22;7125;48.106;11.544;2023-04-25T18:34:13;6.50;99.90
14097;DHT22;7125;48.106;11.544;2023-04-25T18:36:41;6.30;99.90
14097;DHT22;7125;48.106;11.544;2023-04-25T18:39:08;6.20;99.90
14097;DHT22;7125;48.106;11.544;2023-04-25T18:41:36;6.10;99.90
14097;DHT22;7125;48.106;11.544;2023-04-25T18:44:04;6.10;99.90
14097;DHT22;7125;48.106;11.544;2023-04-25T18:46:31;6.00;99.90
14097;DHT22;7125;48.106;11.544;2023-04-25T18:48:59;6.00;99.90
14097;DHT22;7125;48.106;11.544;2023-04-25T18:51:29;6.00;99.90
14097;DHT22;7125;48.106;11.544;2023-04-25T18:53:58;6.00;99.90
14097;DHT22;7125;48.106;11.544;2023-04-25T18:56:26;5.90;99.90
14097;DHT22;7125;48.106;11.544;2023-04-25T18:58:55;5.90;99.90
14097;DHT22;7125;48.106;11.544;2023-04-25T19:01:24;5.90;99.90
14097;DHT22;7125;48.106;11.544;2023-04-25T19:03:52;5.80;99.90
14097;DHT22;7125;48.106;11.544;2023-04-25T19:06:21;5.80;99.90
14097;DHT22;7125;48.106;11.544;2023-04-25T19:08:50;5.70;99.90
14097;DHT22;7125;48.106;11.544;2023-04-25T19:11:18;5.80;99.90
14097;DHT22;7125;48.106;11.544;2023-04-25T19:13:46;5.70;99.90
14097;DHT22;7125;48.106;11.544;2023-04-25T19:16:13;5.80;99.90
14097;DHT22;7125;48.106;11.544;2023-04-25T19:18:41;5.70;99.90
14097;DHT22;7125;48.106;11.544;2023-04-25T19:21:09;5.80;99.90
14097;DHT22;7125;48.106;11.544;2023-04-25T19:23:40;5.80;99.90
14097;DHT22;7125;48.106;11.544;2023-04-25T19:26:09;5.80;99.90
14097;DHT22;7125;48.106;11.544;2023-04-25T19:28:36;5.80;99.90
14097;DHT22;7125;48.106;11.544;2023-04-25T19:31:04;5.80;99.90
14097;DHT22;7125;48.106;11.544;2023-04-25T19:33:32;5.80;99.90
14097;DHT22;7125;48.106;11.544;2023-04-25T19:35:59;5.80;99.90
14097;DHT22;7125;48.106;11.544;2023-04-25T19:38:28;5.80;99.90
14097;DHT22;7125;48.106;11.544;2023-04-25T19:40:55;5.80;99.90
14097;DHT22;7125;48.106;11.544;2023-04-25T19:43:23;5.80;99.90
14097;DHT22;7125;48.106;11.544;2023-04-25T19:45:51;5.80;99.90
14097;DHT22;7125;48.106;11.544;2023-04-25T19:48:18;5.80;99.90
14097;DHT22;7125;48.106;11.544;2023-04-25T19:50:46;5.80;99.90
14097;DHT22;7125;48.106;11.544;2023-04-25T19:53:14;5.80;99.90
14097;DHT22;7125;48.106;11.544;2023-04-25T19:55:42;5.80;99.90
14097;DHT22;7125;48.106;11.544;2023-04-25T19:58:10;5.80;99.90
14097;DHT22;7125;48.106;11.544;2023-04-25T20:00:43;5.80;99.90
14097;DHT22;7125;48.106;11.544;2023-04-25T20:03:10;5.80;99.90
14097;DHT22;7125;48.106;11.544;2023-04-25T20:05:38;5.80;99.90
14097;DHT22;7125;48.106;11.544;2023-04-25T20:08:06;5.80;99.90
14097;DHT22;7125;48.106;11.544;2023-04-25T20:10:33;5.70;99.90
14097;DHT22;7125;48.106;11.544;2023-04-25T20:13:01;5.70;99.90
14097;DHT22;7125;48.106;11.544;2023-04-25T20:15:31;5.70;99.90
14097;DHT22;7125;48.106;11.544;2023-04-25T20:18:00;5.70;99.90
14097;DHT22;7125;48.106;11.544;2023-04-25T20:20:28;5.70;99.90
14097;DHT22;7125;48.106;11.544;2023-04-25T20:22:55;5.70;99.90
14097;DHT22;7125;48.106;11.544;2023-04-25T20:25:26;5.60;99.90
14097;DHT22;7125;48.106;11.544;2023-04-25T20:27:53;5.60;99.90
14097;DHT22;7125;48.106;11.544;2023-04-25T20:30:21;5.60;99.90
14097;DHT22;7125;48.106;11.544;2023-04-25T20:32:48;5.60;99.90
14097;DHT22;7125;48.106;11.544;2023-04-25T20:35:17;5.60;99.90
14097;DHT22;7125;48.106;11.544;2023-04-25T20:37:47;5.60;99.90
14097;DHT22;7125;48.106;11.544;2023-04-25T20:40:15;5.60;99.90
14097;DHT22;7125;48.106;11.544;2023-04-25T20:42:42;5.50;99.90
14097;DHT22;7125;48.106;11.544;2023-04-25T20:45:10;5.50;99.90
14097;DHT22;7125;48.106;11.544;2023-04-25T20:47:38;5.50;99.90
14097;DHT22;7125;48.106;11.544;2023-04-25T20:50:08;5.50;99.90
14097;DHT22;7125;48.106;11.544;2023-04-25T20:52:45;5.50;99.90
14097;DHT22;7125;48.106;11.544;2023-04-25T20:55:14;5.50;99.90
14097;DHT22;7125;48.106;11.544;2023-04-25T20:57:41;5.50;99.90
14097;DHT22;7125;48.106;11.544;2023-04-25T21:00:09;5.60;99.90
14097;DHT22;7125;48.106;11.544;2023-04-25T21:02:43;5.60;99.90
14097;DHT22;7125;48.106;11.544;2023-04-25T21:05:11;5.60;99.90
14097;DHT22;7125;48.106;11.544;2023-04-25T21:07:38;5.70;99.90
14097;DHT22;7125;48.106;11.544;2023-04-25T21:10:08;5.70;99.90
14097;DHT22;7125;48.106;11.544;2023-04-25T21:12:35;5.60;99.90
14097;DHT22;7125;48.106;11.544;2023-04-25T21:15:02;5.60;99.90
14097;DHT22;7125;48.106;11.544;2023-04-25T21:17:30;5.60;99.90